createdAt,value
2018-06-13T00:00:20.313Z,0
2018-06-13T00:00:46.449Z,0
2018-06-13T00:01:12.591Z,0
2018-06-13T00:01:38.750Z,0
2018-06-13T00:02:04.893Z,0
2018-06-13T00:02:31.026Z,0
2018-06-13T00:02:57.174Z,0
2018-06-13T00:03:23.330Z,0
2018-06-13T00:03:49.473Z,0
2018-06-13T00:04:15.634Z,0
2018-06-13T00:04:41.773Z,0
2018-06-13T00:05:07.910Z,0
2018-06-13T00:05:34.050Z,0
2018-06-13T00:06:00.188Z,0
2018-06-13T00:06:26.354Z,0
2018-06-13T00:06:52.490Z,0
2018-06-13T00:07:18.626Z,0
2018-06-13T00:07:44.766Z,0
2018-06-13T00:08:10.915Z,0
2018-06-13T00:08:37.050Z,0
2018-06-13T00:09:03.250Z,0
2018-06-13T00:09:29.557Z,0
2018-06-13T00:09:55.650Z,0
2018-06-13T00:10:21.791Z,0
2018-06-13T00:10:47.958Z,0
2018-06-13T00:11:14.093Z,0
2018-06-13T00:11:40.229Z,0
2018-06-13T00:12:06.375Z,0
2018-06-13T00:12:32.528Z,0
2018-06-13T00:12:58.716Z,0
2018-06-13T00:13:24.857Z,0
2018-06-13T00:13:51.001Z,0
2018-06-13T00:14:17.160Z,0
2018-06-13T00:14:43.332Z,0
2018-06-13T00:15:09.504Z,0
2018-06-13T00:15:35.636Z,0
2018-06-13T00:16:01.783Z,0
2018-06-13T00:16:27.915Z,0
2018-06-13T00:16:54.053Z,0
2018-06-13T00:17:20.219Z,0
2018-06-13T00:17:46.389Z,0
2018-06-13T00:18:12.535Z,0
2018-06-13T00:18:38.669Z,0
2018-06-13T00:19:04.806Z,0
2018-06-13T00:19:30.994Z,0
2018-06-13T00:19:57.096Z,0
2018-06-13T00:20:23.233Z,0
2018-06-13T00:20:49.371Z,0
2018-06-13T00:21:15.515Z,0
2018-06-13T00:21:41.676Z,0
2018-06-13T00:22:07.811Z,0
2018-06-13T00:22:33.957Z,0
2018-06-13T00:23:00.094Z,0
2018-06-13T00:23:26.242Z,0
2018-06-13T00:23:52.379Z,0
2018-06-13T00:24:18.544Z,0
2018-06-13T00:24:44.692Z,0
2018-06-13T00:25:10.828Z,0
2018-06-13T00:25:36.987Z,0
2018-06-13T00:26:03.131Z,0
2018-06-13T00:26:29.293Z,0
2018-06-13T00:26:55.477Z,0
2018-06-13T00:27:21.621Z,0
2018-06-13T00:27:47.760Z,0
2018-06-13T00:28:13.888Z,0
2018-06-13T00:28:40.034Z,0
2018-06-13T00:29:06.171Z,0
2018-06-13T00:29:32.314Z,0
2018-06-13T00:29:58.470Z,0
2018-06-13T00:30:24.619Z,0
2018-06-13T00:30:50.753Z,0
2018-06-13T00:31:16.895Z,0
2018-06-13T00:31:43.043Z,0
2018-06-13T00:32:09.207Z,0
2018-06-13T00:32:35.344Z,0
2018-06-13T00:33:01.506Z,0
2018-06-13T00:33:27.667Z,0
2018-06-13T00:33:53.832Z,0
2018-06-13T00:34:19.969Z,0
2018-06-13T00:34:46.112Z,0
2018-06-13T00:35:12.258Z,0
2018-06-13T00:35:38.395Z,0
2018-06-13T00:36:04.533Z,0
2018-06-13T00:36:30.675Z,0
2018-06-13T00:36:56.830Z,0
2018-06-13T00:37:23.006Z,0
2018-06-13T00:37:49.139Z,0
2018-06-13T00:38:15.298Z,0
2018-06-13T00:38:41.434Z,0
2018-06-13T00:39:07.576Z,0
2018-06-13T00:39:33.712Z,0
2018-06-13T00:39:59.859Z,0
2018-06-13T00:40:25.997Z,0
2018-06-13T00:40:52.156Z,0
2018-06-13T00:41:18.290Z,0
2018-06-13T00:41:44.431Z,0
2018-06-13T00:42:10.595Z,0
2018-06-13T00:42:36.750Z,0
2018-06-13T00:43:02.888Z,0
2018-06-13T00:43:29.028Z,0
2018-06-13T00:43:55.159Z,0
2018-06-13T00:44:21.298Z,0
2018-06-13T00:44:47.479Z,0
2018-06-13T00:45:13.602Z,0
2018-06-13T00:45:39.793Z,0
2018-06-13T00:46:05.927Z,0
2018-06-13T00:46:32.069Z,0
2018-06-13T00:46:58.202Z,0
2018-06-13T00:47:24.343Z,0
2018-06-13T00:47:50.487Z,0
2018-06-13T00:48:16.621Z,0
2018-06-13T00:48:42.784Z,0
2018-06-13T00:49:08.927Z,0
2018-06-13T00:49:35.070Z,0
2018-06-13T00:50:01.217Z,0
2018-06-13T00:50:27.469Z,0
2018-06-13T00:50:53.514Z,0
2018-06-13T00:51:19.652Z,0
2018-06-13T00:51:45.794Z,0
2018-06-13T00:52:11.932Z,0
2018-06-13T00:52:38.077Z,0
2018-06-13T00:53:04.213Z,0
2018-06-13T00:53:30.350Z,0
2018-06-13T00:53:56.489Z,0
2018-06-13T00:54:22.630Z,0
2018-06-13T00:54:48.774Z,0
2018-06-13T00:55:14.914Z,0
2018-06-13T00:55:41.048Z,0
2018-06-13T00:56:07.188Z,0
2018-06-13T00:56:33.318Z,0
2018-06-13T00:56:59.462Z,0
2018-06-13T00:57:25.598Z,0
2018-06-13T00:57:51.917Z,0
2018-06-13T00:58:18.067Z,0
2018-06-13T00:58:44.209Z,0
2018-06-13T00:59:10.366Z,0
2018-06-13T00:59:36.508Z,0
2018-06-13T01:00:02.667Z,0
2018-06-13T01:00:28.811Z,0
2018-06-13T01:00:54.944Z,0
2018-06-13T01:01:21.096Z,0
2018-06-13T01:01:47.255Z,0
2018-06-13T01:02:13.393Z,0
2018-06-13T01:02:39.528Z,0
2018-06-13T01:03:05.724Z,0
2018-06-13T01:03:31.863Z,0
2018-06-13T01:03:58.031Z,0
2018-06-13T01:04:24.165Z,0
2018-06-13T01:04:50.304Z,0
2018-06-13T01:05:16.461Z,0
2018-06-13T01:05:42.603Z,0
2018-06-13T01:06:08.744Z,0
2018-06-13T01:06:34.879Z,0
2018-06-13T01:07:01.023Z,0
2018-06-13T01:07:27.165Z,0
2018-06-13T01:07:53.304Z,0
2018-06-13T01:08:19.453Z,0
2018-06-13T01:08:45.596Z,0
2018-06-13T01:09:11.760Z,0
2018-06-13T01:09:37.898Z,0
2018-06-13T01:10:04.032Z,0
2018-06-13T01:10:30.197Z,0
2018-06-13T01:10:56.333Z,0
2018-06-13T01:11:22.479Z,0
2018-06-13T01:11:48.637Z,0
2018-06-13T01:12:14.772Z,0
2018-06-13T01:12:40.908Z,0
2018-06-13T01:13:07.077Z,0
2018-06-13T01:13:33.218Z,0
2018-06-13T01:13:59.358Z,0
2018-06-13T01:14:25.498Z,0
2018-06-13T01:14:51.642Z,0
2018-06-13T01:15:17.803Z,0
2018-06-13T01:15:43.939Z,0
2018-06-13T01:16:10.082Z,0
2018-06-13T01:16:36.220Z,0
2018-06-13T01:17:02.360Z,0
2018-06-13T01:17:28.500Z,0
2018-06-13T01:17:54.639Z,0
2018-06-13T01:18:20.806Z,0
2018-06-13T01:18:46.961Z,0
2018-06-13T01:19:13.105Z,0
2018-06-13T01:19:39.241Z,0
2018-06-13T01:20:05.383Z,0
2018-06-13T01:20:31.528Z,0
2018-06-13T01:20:57.665Z,0
2018-06-13T01:21:23.853Z,0
2018-06-13T01:21:49.984Z,0
2018-06-13T01:22:16.130Z,0
2018-06-13T01:22:42.271Z,0
2018-06-13T01:23:08.415Z,0
2018-06-13T01:23:34.552Z,0
2018-06-13T01:24:00.743Z,0
2018-06-13T01:24:26.882Z,0
2018-06-13T01:24:53.022Z,0
2018-06-13T01:25:19.190Z,0
2018-06-13T01:25:45.328Z,0
2018-06-13T01:26:11.497Z,0
2018-06-13T01:26:37.653Z,0
2018-06-13T01:27:03.795Z,0
2018-06-13T01:27:29.934Z,0
2018-06-13T01:27:56.075Z,0
2018-06-13T01:28:22.206Z,0
2018-06-13T01:28:48.348Z,0
2018-06-13T01:29:14.527Z,0
2018-06-13T01:29:40.651Z,0
2018-06-13T01:30:06.804Z,0
2018-06-13T01:30:32.950Z,0
2018-06-13T01:30:59.088Z,0
2018-06-13T01:31:25.224Z,0
2018-06-13T01:31:51.357Z,0
2018-06-13T01:32:17.507Z,0
2018-06-13T01:32:43.650Z,0
2018-06-13T01:33:09.816Z,0
2018-06-13T01:33:35.979Z,0
2018-06-13T01:34:02.119Z,0
2018-06-13T01:34:28.258Z,0
2018-06-13T01:34:54.393Z,0
2018-06-13T01:35:20.539Z,0
2018-06-13T01:35:46.672Z,0
2018-06-13T01:36:12.815Z,0
2018-06-13T01:36:38.949Z,0
2018-06-13T01:37:05.111Z,0
2018-06-13T01:37:31.249Z,0
2018-06-13T01:37:57.384Z,0
2018-06-13T01:38:23.560Z,0
2018-06-13T01:38:49.694Z,0
2018-06-13T01:39:15.833Z,0
2018-06-13T01:39:41.970Z,0
2018-06-13T01:40:08.111Z,0
2018-06-13T01:40:34.260Z,0
2018-06-13T01:41:00.419Z,0
2018-06-13T01:41:26.584Z,0
2018-06-13T01:41:52.751Z,0
2018-06-13T01:42:18.887Z,0
2018-06-13T01:42:45.026Z,0
2018-06-13T01:43:11.190Z,0
2018-06-13T01:43:37.371Z,0
2018-06-13T01:44:03.509Z,0
2018-06-13T01:44:29.648Z,0
2018-06-13T01:44:55.792Z,0
2018-06-13T01:45:21.930Z,0
2018-06-13T01:45:48.074Z,0
2018-06-13T01:46:14.203Z,0
2018-06-13T01:46:40.346Z,0
2018-06-13T01:47:06.485Z,0
2018-06-13T01:47:32.622Z,0
2018-06-13T01:47:58.758Z,0
2018-06-13T01:48:24.895Z,0
2018-06-13T01:48:51.035Z,0
2018-06-13T01:49:17.175Z,0
2018-06-13T01:49:43.312Z,0
2018-06-13T01:50:09.448Z,0
2018-06-13T01:50:35.594Z,0
2018-06-13T01:51:01.752Z,0
2018-06-13T01:51:27.896Z,0
2018-06-13T01:51:54.029Z,0
2018-06-13T01:52:20.166Z,0
2018-06-13T01:52:46.304Z,0
2018-06-13T01:53:12.480Z,0
2018-06-13T01:53:38.617Z,0
2018-06-13T01:54:04.785Z,0
2018-06-13T01:54:30.927Z,0
2018-06-13T01:54:57.067Z,0
2018-06-13T01:55:23.203Z,0
2018-06-13T01:55:49.339Z,0
2018-06-13T01:56:15.480Z,0
2018-06-13T01:56:41.632Z,0
2018-06-13T01:57:07.792Z,0
2018-06-13T01:57:33.924Z,0
2018-06-13T01:58:00.069Z,0
2018-06-13T01:58:26.204Z,0
2018-06-13T01:58:52.341Z,0
2018-06-13T01:59:18.482Z,0
2018-06-13T01:59:44.621Z,0
2018-06-13T02:00:10.767Z,0
2018-06-13T02:00:36.901Z,0
2018-06-13T02:01:03.045Z,0
2018-06-13T02:01:29.183Z,0
2018-06-13T02:01:55.323Z,0
2018-06-13T02:02:21.455Z,0
2018-06-13T02:02:47.597Z,0
2018-06-13T02:03:13.737Z,0
2018-06-13T02:03:39.886Z,0
2018-06-13T02:04:06.041Z,0
2018-06-13T02:04:32.187Z,0
2018-06-13T02:04:58.327Z,0
2018-06-13T02:05:24.459Z,0
2018-06-13T02:05:50.589Z,0
2018-06-13T02:06:16.727Z,0
2018-06-13T02:06:42.872Z,0
2018-06-13T02:07:09.014Z,0
2018-06-13T02:07:35.156Z,0
2018-06-13T02:08:01.322Z,0
2018-06-13T02:08:27.500Z,0
2018-06-13T02:08:53.642Z,0
2018-06-13T02:09:19.778Z,0
2018-06-13T02:09:45.920Z,0
2018-06-13T02:10:12.057Z,0
2018-06-13T02:10:38.199Z,0
2018-06-13T02:11:04.343Z,0
2018-06-13T02:11:30.508Z,0
2018-06-13T02:11:56.672Z,0
2018-06-13T02:12:22.816Z,0
2018-06-13T02:12:48.960Z,0
2018-06-13T02:13:15.156Z,0
2018-06-13T02:13:41.292Z,0
2018-06-13T02:14:07.428Z,0
2018-06-13T02:14:33.571Z,0
2018-06-13T02:14:59.735Z,0
2018-06-13T02:15:25.872Z,0
2018-06-13T02:15:52.016Z,0
2018-06-13T02:16:18.156Z,0
2018-06-13T02:16:44.323Z,0
2018-06-13T02:17:10.458Z,0
2018-06-13T02:17:36.602Z,0
2018-06-13T02:18:02.745Z,0
2018-06-13T02:18:28.874Z,0
2018-06-13T02:18:55.037Z,0
2018-06-13T02:19:21.175Z,0
2018-06-13T02:19:47.340Z,0
2018-06-13T02:20:13.511Z,0
2018-06-13T02:20:39.647Z,0
2018-06-13T02:21:05.818Z,0
2018-06-13T02:21:31.932Z,0
2018-06-13T02:21:58.511Z,0
2018-06-13T02:22:25.529Z,0
2018-06-13T02:22:52.199Z,0
2018-06-13T02:23:18.327Z,0
2018-06-13T02:23:44.492Z,0
2018-06-13T02:24:10.629Z,0
2018-06-13T02:24:36.770Z,0
2018-06-13T02:25:02.910Z,0
2018-06-13T02:25:29.043Z,0
2018-06-13T02:25:55.187Z,0
2018-06-13T02:26:21.327Z,0
2018-06-13T02:26:47.461Z,0
2018-06-13T02:27:13.606Z,0
2018-06-13T02:27:39.748Z,0
2018-06-13T02:28:05.879Z,0
2018-06-13T02:28:32.017Z,0
2018-06-13T02:28:58.161Z,0
2018-06-13T02:29:24.296Z,0
2018-06-13T02:29:50.438Z,0
2018-06-13T02:30:16.573Z,0
2018-06-13T02:30:42.747Z,0
2018-06-13T02:31:08.881Z,0
2018-06-13T02:31:35.080Z,0
2018-06-13T02:32:01.235Z,0
2018-06-13T02:32:27.412Z,0
2018-06-13T02:32:53.551Z,0
2018-06-13T02:33:19.706Z,0
2018-06-13T02:33:45.874Z,0
2018-06-13T02:34:12.004Z,0
2018-06-13T02:34:38.174Z,0
2018-06-13T02:35:04.345Z,0
2018-06-13T02:35:30.558Z,0
2018-06-13T02:35:56.716Z,0
2018-06-13T02:36:22.875Z,0
2018-06-13T02:36:49.012Z,0
2018-06-13T02:37:15.197Z,0
2018-06-13T02:37:41.355Z,0
2018-06-13T02:38:07.541Z,0
2018-06-13T02:38:33.683Z,0
2018-06-13T02:38:59.848Z,0
2018-06-13T02:39:26.006Z,0
2018-06-13T02:39:52.173Z,0
2018-06-13T02:40:18.374Z,0
2018-06-13T02:40:44.520Z,0
2018-06-13T02:41:10.694Z,0
2018-06-13T02:41:36.838Z,0
2018-06-13T02:42:02.966Z,0
2018-06-13T02:42:29.169Z,0
2018-06-13T02:42:55.329Z,0
2018-06-13T02:43:21.460Z,0
2018-06-13T02:43:47.604Z,0
2018-06-13T02:44:13.738Z,0
2018-06-13T02:44:39.908Z,0
2018-06-13T02:45:06.065Z,0
2018-06-13T02:45:32.234Z,0
2018-06-13T02:45:58.392Z,0
2018-06-13T02:46:24.552Z,0
2018-06-13T02:46:50.693Z,0
2018-06-13T02:47:16.858Z,0
2018-06-13T02:47:43.027Z,0
2018-06-13T02:48:09.173Z,0
2018-06-13T02:48:35.305Z,0
2018-06-13T02:49:01.469Z,0
2018-06-13T02:49:27.631Z,0
2018-06-13T02:49:53.759Z,0
2018-06-13T02:50:19.921Z,0
2018-06-13T02:50:46.062Z,0
2018-06-13T02:51:12.222Z,0
2018-06-13T02:51:38.373Z,0
2018-06-13T02:52:04.583Z,0
2018-06-13T02:52:30.722Z,0
2018-06-13T02:52:56.883Z,0
2018-06-13T02:53:23.019Z,0
2018-06-13T02:53:49.210Z,0
2018-06-13T02:54:15.371Z,0
2018-06-13T02:54:41.511Z,0
2018-06-13T02:55:07.689Z,0
2018-06-13T02:55:33.831Z,0
2018-06-13T02:55:59.973Z,0
2018-06-13T02:56:26.117Z,0
2018-06-13T02:56:52.280Z,0
2018-06-13T02:57:18.441Z,0
2018-06-13T02:57:44.579Z,0
2018-06-13T02:58:10.723Z,0
2018-06-13T02:58:36.859Z,0
2018-06-13T02:59:03.137Z,0
2018-06-13T02:59:29.430Z,0
2018-06-13T02:59:55.575Z,0
2018-06-13T03:00:21.921Z,0
2018-06-13T03:00:48.210Z,0
2018-06-13T03:01:14.464Z,0
2018-06-13T03:01:40.683Z,0
2018-06-13T03:02:07.059Z,0
2018-06-13T03:02:33.282Z,0
2018-06-13T03:02:59.425Z,0
2018-06-13T03:03:25.586Z,0
2018-06-13T03:03:51.730Z,0
2018-06-13T03:04:17.863Z,0
2018-06-13T03:04:44.057Z,0
2018-06-13T03:05:10.214Z,0
2018-06-13T03:05:36.386Z,0
2018-06-13T03:06:02.543Z,0
2018-06-13T03:06:28.684Z,0
2018-06-13T03:06:54.850Z,0
2018-06-13T03:07:21.020Z,0
2018-06-13T03:07:47.176Z,0
2018-06-13T03:08:13.314Z,0
2018-06-13T03:08:39.500Z,0
2018-06-13T03:09:05.640Z,0
2018-06-13T03:09:31.781Z,0
2018-06-13T03:09:57.921Z,0
2018-06-13T03:10:24.112Z,0
2018-06-13T03:10:50.241Z,5
2018-06-13T03:11:16.413Z,5
2018-06-13T03:11:42.601Z,5
2018-06-13T03:12:08.746Z,5
2018-06-13T03:12:34.883Z,5
2018-06-13T03:13:01.025Z,5
2018-06-13T03:13:27.234Z,5
2018-06-13T03:13:53.372Z,5
2018-06-13T03:14:19.512Z,5
2018-06-13T03:14:45.698Z,5
2018-06-13T03:15:11.857Z,5
2018-06-13T03:15:38.023Z,5
2018-06-13T03:16:04.209Z,5
2018-06-13T03:16:30.399Z,5
2018-06-13T03:16:56.529Z,5
2018-06-13T03:17:22.692Z,5
2018-06-13T03:17:48.857Z,5
2018-06-13T03:18:14.990Z,5
2018-06-13T03:18:41.129Z,5
2018-06-13T03:19:07.297Z,5
2018-06-13T03:19:33.442Z,5
2018-06-13T03:19:59.598Z,5
2018-06-13T03:20:25.762Z,5
2018-06-13T03:20:51.966Z,5
2018-06-13T03:21:18.073Z,5
2018-06-13T03:21:44.229Z,5
2018-06-13T03:22:10.385Z,5
2018-06-13T03:22:36.527Z,5
2018-06-13T03:23:02.666Z,5
2018-06-13T03:23:28.808Z,5
2018-06-13T03:23:55.022Z,5
2018-06-13T03:24:21.161Z,5
2018-06-13T03:24:47.300Z,5
2018-06-13T03:25:13.453Z,5
2018-06-13T03:25:39.591Z,5
2018-06-13T03:26:05.728Z,5
2018-06-13T03:26:31.873Z,5
2018-06-13T03:26:58.021Z,5
2018-06-13T03:27:24.159Z,5
2018-06-13T03:27:50.321Z,5
2018-06-13T03:28:16.461Z,5
2018-06-13T03:28:42.600Z,5
2018-06-13T03:29:08.745Z,5
2018-06-13T03:29:34.907Z,5
2018-06-13T03:30:01.058Z,5
2018-06-13T03:30:27.241Z,5
2018-06-13T03:30:53.395Z,5
2018-06-13T03:31:19.533Z,5
2018-06-13T03:31:45.693Z,5
2018-06-13T03:32:11.900Z,5
2018-06-13T03:32:38.069Z,5
2018-06-13T03:33:04.210Z,5
2018-06-13T03:33:30.347Z,10
2018-06-13T03:33:56.492Z,10
2018-06-13T03:34:22.627Z,10
2018-06-13T03:34:48.768Z,10
2018-06-13T03:35:14.938Z,10
2018-06-13T03:35:41.081Z,10
2018-06-13T03:36:07.231Z,10
2018-06-13T03:36:33.375Z,10
2018-06-13T03:36:59.517Z,10
2018-06-13T03:37:25.650Z,10
2018-06-13T03:37:51.789Z,10
2018-06-13T03:38:17.926Z,10
2018-06-13T03:38:44.067Z,10
2018-06-13T03:39:10.200Z,10
2018-06-13T03:39:36.367Z,10
2018-06-13T03:40:02.501Z,10
2018-06-13T03:40:28.660Z,10
2018-06-13T03:40:54.795Z,10
2018-06-13T03:41:20.985Z,10
2018-06-13T03:41:47.123Z,10
2018-06-13T03:42:13.268Z,10
2018-06-13T03:42:39.402Z,10
2018-06-13T03:43:05.544Z,10
2018-06-13T03:43:31.708Z,10
2018-06-13T03:43:57.841Z,15
2018-06-13T03:44:23.984Z,15
2018-06-13T03:44:50.118Z,15
2018-06-13T03:45:16.278Z,15
2018-06-13T03:45:42.424Z,15
2018-06-13T03:46:08.555Z,15
2018-06-13T03:46:34.697Z,15
2018-06-13T03:47:00.861Z,15
2018-06-13T03:47:26.999Z,15
2018-06-13T03:47:53.145Z,15
2018-06-13T03:48:19.281Z,15
2018-06-13T03:48:45.425Z,15
2018-06-13T03:49:11.561Z,15
2018-06-13T03:49:37.695Z,15
2018-06-13T03:50:03.837Z,15
2018-06-13T03:50:29.975Z,15
2018-06-13T03:50:56.123Z,15
2018-06-13T03:51:22.285Z,15
2018-06-13T03:51:48.424Z,15
2018-06-13T03:52:14.558Z,15
2018-06-13T03:52:40.701Z,15
2018-06-13T03:53:06.831Z,15
2018-06-13T03:53:32.970Z,15
2018-06-13T03:53:59.108Z,15
2018-06-13T03:54:25.251Z,15
2018-06-13T03:54:51.385Z,15
2018-06-13T03:55:17.531Z,15
2018-06-13T03:55:43.691Z,15
2018-06-13T03:56:09.852Z,15
2018-06-13T03:56:35.997Z,15
2018-06-13T03:57:02.140Z,15
2018-06-13T03:57:28.277Z,20
2018-06-13T03:57:54.417Z,20
2018-06-13T03:58:20.564Z,20
2018-06-13T03:58:46.721Z,20
2018-06-13T03:59:12.859Z,20
2018-06-13T03:59:39.037Z,25
2018-06-13T04:00:05.170Z,25
2018-06-13T04:00:31.309Z,30
2018-06-13T04:00:57.451Z,30
2018-06-13T04:01:23.596Z,30
2018-06-13T04:01:49.791Z,35
2018-06-13T04:02:15.888Z,35
2018-06-13T04:02:42.026Z,35
2018-06-13T04:03:08.170Z,35
2018-06-13T04:03:34.309Z,35
2018-06-13T04:04:00.441Z,40
2018-06-13T04:04:26.585Z,40
2018-06-13T04:04:52.722Z,40
2018-06-13T04:05:18.864Z,40
2018-06-13T04:05:45.020Z,40
2018-06-13T04:06:11.366Z,40
2018-06-13T04:06:37.473Z,40
2018-06-13T04:07:03.615Z,40
2018-06-13T04:07:29.782Z,40
2018-06-13T04:07:55.917Z,40
2018-06-13T04:08:22.061Z,40
2018-06-13T04:08:48.201Z,40
2018-06-13T04:09:14.341Z,40
2018-06-13T04:09:40.476Z,40
2018-06-13T04:10:06.643Z,40
2018-06-13T04:10:32.788Z,40
2018-06-13T04:10:58.931Z,40
2018-06-13T04:11:25.066Z,40
2018-06-13T04:11:51.253Z,40
2018-06-13T04:12:17.388Z,40
2018-06-13T04:12:43.550Z,45
2018-06-13T04:13:09.683Z,45
2018-06-13T04:13:35.865Z,45
2018-06-13T04:14:01.983Z,45
2018-06-13T04:14:28.151Z,45
2018-06-13T04:14:54.323Z,45
2018-06-13T04:15:20.463Z,45
2018-06-13T04:15:46.624Z,45
2018-06-13T04:16:12.765Z,50
2018-06-13T04:16:38.899Z,50
2018-06-13T04:17:05.041Z,50
2018-06-13T04:17:31.177Z,55
2018-06-13T04:17:57.320Z,55
2018-06-13T04:18:23.461Z,55
2018-06-13T04:18:49.621Z,50
2018-06-13T04:19:15.760Z,50
2018-06-13T04:19:41.894Z,50
2018-06-13T04:20:08.028Z,50
2018-06-13T04:20:34.167Z,45
2018-06-13T04:21:00.305Z,45
2018-06-13T04:21:26.440Z,45
2018-06-13T04:21:52.577Z,45
2018-06-13T04:22:18.736Z,45
2018-06-13T04:22:44.941Z,45
2018-06-13T04:23:11.079Z,45
2018-06-13T04:23:37.215Z,45
2018-06-13T04:24:03.357Z,45
2018-06-13T04:24:29.518Z,45
2018-06-13T04:24:55.656Z,45
2018-06-13T04:25:21.798Z,50
2018-06-13T04:25:47.934Z,50
2018-06-13T04:26:14.066Z,50
2018-06-13T04:26:40.206Z,55
2018-06-13T04:27:06.346Z,55
2018-06-13T04:27:32.497Z,55
2018-06-13T04:27:58.635Z,60
2018-06-13T04:28:24.772Z,60
2018-06-13T04:28:50.934Z,65
2018-06-13T04:29:17.072Z,65
2018-06-13T04:29:43.217Z,65
2018-06-13T04:30:09.354Z,65
2018-06-13T04:30:35.496Z,65
2018-06-13T04:31:01.639Z,65
2018-06-13T04:31:27.772Z,65
2018-06-13T04:31:53.915Z,65
2018-06-13T04:32:20.057Z,65
2018-06-13T04:32:46.200Z,70
2018-06-13T04:33:12.358Z,70
2018-06-13T04:33:38.510Z,70
2018-06-13T04:34:04.658Z,70
2018-06-13T04:34:30.798Z,75
2018-06-13T04:34:56.932Z,75
2018-06-13T04:35:23.074Z,80
2018-06-13T04:35:49.254Z,75
2018-06-13T04:36:15.390Z,75
2018-06-13T04:36:41.520Z,70
2018-06-13T04:37:07.688Z,70
2018-06-13T04:37:33.821Z,75
2018-06-13T04:37:59.970Z,80
2018-06-13T04:38:26.135Z,85
2018-06-13T04:38:52.277Z,85
2018-06-13T04:39:18.407Z,85
2018-06-13T04:39:44.544Z,80
2018-06-13T04:40:10.687Z,75
2018-06-13T04:40:36.849Z,75
2018-06-13T04:41:02.984Z,70
2018-06-13T04:41:29.127Z,65
2018-06-13T04:41:55.283Z,65
2018-06-13T04:42:21.438Z,65
2018-06-13T04:42:47.576Z,70
2018-06-13T04:43:13.716Z,75
2018-06-13T04:43:39.852Z,80
2018-06-13T04:44:05.994Z,85
2018-06-13T04:44:32.153Z,90
2018-06-13T04:44:58.305Z,95
2018-06-13T04:45:24.445Z,95
2018-06-13T04:45:50.583Z,95
2018-06-13T04:46:16.725Z,95
2018-06-13T04:46:42.868Z,90
2018-06-13T04:47:09.000Z,85
2018-06-13T04:47:35.142Z,85
2018-06-13T04:48:01.285Z,85
2018-06-13T04:48:27.423Z,90
2018-06-13T04:48:53.585Z,90
2018-06-13T04:49:19.727Z,85
2018-06-13T04:49:45.868Z,80
2018-06-13T04:50:12.007Z,75
2018-06-13T04:50:38.152Z,75
2018-06-13T04:51:04.289Z,70
2018-06-13T04:51:30.451Z,70
2018-06-13T04:51:56.583Z,70
2018-06-13T04:52:22.751Z,70
2018-06-13T04:52:48.888Z,70
2018-06-13T04:53:15.046Z,75
2018-06-13T04:53:41.189Z,75
2018-06-13T04:54:07.335Z,80
2018-06-13T04:54:33.473Z,80
2018-06-13T04:54:59.606Z,85
2018-06-13T04:55:25.777Z,85
2018-06-13T04:55:51.940Z,85
2018-06-13T04:56:18.084Z,85
2018-06-13T04:56:44.248Z,85
2018-06-13T04:57:10.412Z,90
2018-06-13T04:57:36.541Z,90
2018-06-13T04:58:02.707Z,90
2018-06-13T04:58:28.840Z,95
2018-06-13T04:58:54.988Z,100
2018-06-13T04:59:21.119Z,100
2018-06-13T04:59:47.262Z,100
2018-06-13T05:00:13.407Z,100
2018-06-13T05:00:39.543Z,105
2018-06-13T05:01:05.713Z,105
2018-06-13T05:01:31.852Z,105
2018-06-13T05:01:57.988Z,105
2018-06-13T05:02:24.151Z,105
2018-06-13T05:02:50.292Z,105
2018-06-13T05:03:16.445Z,110
2018-06-13T05:03:42.595Z,110
2018-06-13T05:04:08.757Z,110
2018-06-13T05:04:34.897Z,110
2018-06-13T05:05:01.063Z,110
2018-06-13T05:05:27.179Z,110
2018-06-13T05:05:53.313Z,115
2018-06-13T05:06:19.449Z,115
2018-06-13T05:06:45.589Z,120
2018-06-13T05:07:11.748Z,120
2018-06-13T05:07:37.881Z,120
2018-06-13T05:08:04.023Z,125
2018-06-13T05:08:30.165Z,125
2018-06-13T05:08:56.305Z,130
2018-06-13T05:09:22.443Z,135
2018-06-13T05:09:48.578Z,135
2018-06-13T05:10:14.727Z,140
2018-06-13T05:10:40.861Z,145
2018-06-13T05:11:07.002Z,145
2018-06-13T05:11:33.149Z,150
2018-06-13T05:11:59.288Z,155
2018-06-13T05:12:25.430Z,155
2018-06-13T05:12:51.565Z,160
2018-06-13T05:13:17.703Z,160
2018-06-13T05:13:43.841Z,160
2018-06-13T05:14:09.989Z,165
2018-06-13T05:14:36.158Z,165
2018-06-13T05:15:02.325Z,170
2018-06-13T05:15:28.485Z,175
2018-06-13T05:15:54.629Z,175
2018-06-13T05:16:20.791Z,175
2018-06-13T05:16:47.121Z,175
2018-06-13T05:17:13.324Z,180
2018-06-13T05:17:39.463Z,180
2018-06-13T05:18:05.682Z,180
2018-06-13T05:18:31.826Z,180
2018-06-13T05:18:58.316Z,180
2018-06-13T05:19:24.713Z,180
2018-06-13T05:19:50.937Z,180
2018-06-13T05:20:17.075Z,180
2018-06-13T05:20:43.250Z,180
2018-06-13T05:21:09.409Z,180
2018-06-13T05:21:35.568Z,180
2018-06-13T05:22:01.726Z,185
2018-06-13T05:22:27.871Z,185
2018-06-13T05:22:54.044Z,185
2018-06-13T05:23:20.148Z,185
2018-06-13T05:23:46.285Z,185
2018-06-13T05:24:12.453Z,185
2018-06-13T05:24:38.594Z,185
2018-06-13T05:25:04.732Z,185
2018-06-13T05:25:30.879Z,185
2018-06-13T05:25:57.037Z,185
2018-06-13T05:26:23.176Z,185
2018-06-13T05:26:49.319Z,180
2018-06-13T05:27:15.456Z,180
2018-06-13T05:27:41.628Z,170
2018-06-13T05:28:07.773Z,165
2018-06-13T05:28:33.954Z,170
2018-06-13T05:29:00.061Z,165
2018-06-13T05:29:26.200Z,170
2018-06-13T05:29:52.343Z,170
2018-06-13T05:30:18.501Z,165
2018-06-13T05:30:44.635Z,160
2018-06-13T05:31:10.778Z,170
2018-06-13T05:31:36.916Z,185
2018-06-13T05:32:03.056Z,195
2018-06-13T05:32:29.188Z,205
2018-06-13T05:32:55.350Z,210
2018-06-13T05:33:21.494Z,210
2018-06-13T05:33:47.626Z,215
2018-06-13T05:34:13.774Z,215
2018-06-13T05:34:39.909Z,220
2018-06-13T05:35:06.044Z,215
2018-06-13T05:35:32.236Z,215
2018-06-13T05:35:58.375Z,215
2018-06-13T05:36:24.511Z,210
2018-06-13T05:36:50.651Z,205
2018-06-13T05:37:16.805Z,195
2018-06-13T05:37:42.954Z,195
2018-06-13T05:38:09.100Z,195
2018-06-13T05:38:35.239Z,200
2018-06-13T05:39:01.384Z,205
2018-06-13T05:39:27.529Z,205
2018-06-13T05:39:53.672Z,210
2018-06-13T05:40:19.803Z,210
2018-06-13T05:40:45.947Z,215
2018-06-13T05:41:12.112Z,220
2018-06-13T05:41:38.281Z,215
2018-06-13T05:42:04.465Z,215
2018-06-13T05:42:30.648Z,215
2018-06-13T05:42:56.750Z,215
2018-06-13T05:43:22.911Z,215
2018-06-13T05:43:49.097Z,215
2018-06-13T05:44:15.212Z,215
2018-06-13T05:44:41.349Z,215
2018-06-13T05:45:07.516Z,210
2018-06-13T05:45:33.685Z,215
2018-06-13T05:45:59.821Z,210
2018-06-13T05:46:25.962Z,215
2018-06-13T05:46:52.102Z,205
2018-06-13T05:47:18.241Z,205
2018-06-13T05:47:44.437Z,200
2018-06-13T05:48:10.577Z,195
2018-06-13T05:48:36.763Z,185
2018-06-13T05:49:02.898Z,180
2018-06-13T05:49:29.046Z,185
2018-06-13T05:49:55.174Z,190
2018-06-13T05:50:21.318Z,190
2018-06-13T05:50:47.462Z,190
2018-06-13T05:51:13.627Z,195
2018-06-13T05:51:39.773Z,200
2018-06-13T05:52:05.964Z,210
2018-06-13T05:52:32.145Z,220
2018-06-13T05:52:58.308Z,230
2018-06-13T05:53:24.473Z,235
2018-06-13T05:53:50.608Z,235
2018-06-13T05:54:16.771Z,240
2018-06-13T05:54:42.911Z,240
2018-06-13T05:55:09.073Z,240
2018-06-13T05:55:35.215Z,245
2018-06-13T05:56:01.342Z,235
2018-06-13T05:56:27.517Z,230
2018-06-13T05:56:53.646Z,225
2018-06-13T05:57:19.790Z,220
2018-06-13T05:57:45.930Z,215
2018-06-13T05:58:12.081Z,215
2018-06-13T05:58:38.212Z,210
2018-06-13T05:59:04.394Z,205
2018-06-13T05:59:30.475Z,205
2018-06-13T05:59:56.659Z,200
2018-06-13T06:00:22.790Z,195
2018-06-13T06:00:48.942Z,190
2018-06-13T06:01:15.156Z,185
2018-06-13T06:01:41.263Z,190
2018-06-13T06:02:07.410Z,195
2018-06-13T06:02:33.582Z,195
2018-06-13T06:02:59.713Z,200
2018-06-13T06:03:25.865Z,195
2018-06-13T06:03:51.996Z,195
2018-06-13T06:04:18.145Z,195
2018-06-13T06:04:44.344Z,190
2018-06-13T06:05:10.504Z,190
2018-06-13T06:05:36.781Z,180
2018-06-13T06:06:02.921Z,175
2018-06-13T06:06:29.070Z,170
2018-06-13T06:06:55.212Z,165
2018-06-13T06:07:21.349Z,165
2018-06-13T06:07:47.497Z,170
2018-06-13T06:08:13.638Z,170
2018-06-13T06:08:39.775Z,170
2018-06-13T06:09:05.916Z,170
2018-06-13T06:09:32.082Z,170
2018-06-13T06:09:58.219Z,165
2018-06-13T06:10:24.402Z,165
2018-06-13T06:10:50.501Z,160
2018-06-13T06:11:16.667Z,160
2018-06-13T06:11:42.839Z,160
2018-06-13T06:12:09.007Z,160
2018-06-13T06:12:35.140Z,160
2018-06-13T06:13:01.286Z,160
2018-06-13T06:13:27.461Z,160
2018-06-13T06:13:53.623Z,165
2018-06-13T06:14:19.794Z,170
2018-06-13T06:14:45.933Z,170
2018-06-13T06:15:12.092Z,175
2018-06-13T06:15:38.253Z,180
2018-06-13T06:16:04.429Z,185
2018-06-13T06:16:30.559Z,190
2018-06-13T06:16:56.725Z,200
2018-06-13T06:17:22.867Z,205
2018-06-13T06:17:49.007Z,210